createdAt,value
2019-03-17T00:00:11.701Z,11.89
2019-03-17T00:01:16.769Z,11.90
2019-03-17T00:02:20.361Z,11.90
2019-03-17T00:03:23.788Z,11.92
2019-03-17T00:04:31.764Z,11.91
2019-03-17T00:05:32.390Z,11.89
2019-03-17T00:06:35.826Z,11.92
2019-03-17T00:07:39.261Z,11.94
2019-03-17T00:08:42.765Z,11.92
2019-03-17T00:09:46.205Z,11.89
2019-03-17T00:10:52.489Z,11.90
2019-03-17T00:11:54.785Z,11.90
2019-03-17T00:12:58.510Z,11.91
2019-03-17T00:14:02.015Z,11.91
2019-03-17T00:15:06.516Z,11.92
2019-03-17T00:16:10.046Z,11.91
2019-03-17T00:17:13.476Z,11.93
2019-03-17T00:18:16.927Z,11.92
2019-03-17T00:19:20.349Z,11.90
2019-03-17T00:20:23.812Z,11.90
2019-03-17T00:21:27.239Z,11.90
2019-03-17T00:22:30.680Z,11.87
2019-03-17T00:23:34.112Z,11.86
2019-03-17T00:24:37.608Z,11.87
2019-03-17T00:25:41.105Z,11.87
2019-03-17T00:26:44.633Z,11.86
2019-03-17T00:27:48.061Z,11.86
2019-03-17T00:28:51.563Z,11.86
2019-03-17T00:29:55.064Z,11.87
2019-03-17T00:30:58.518Z,11.86
2019-03-17T00:32:02.061Z,11.81
2019-03-17T00:33:05.477Z,11.81
2019-03-17T00:34:08.900Z,11.81
2019-03-17T00:35:12.426Z,11.80
2019-03-17T00:36:15.831Z,11.82
2019-03-17T00:37:19.271Z,11.81
2019-03-17T00:38:22.711Z,11.84
2019-03-17T00:39:26.145Z,11.84
2019-03-17T00:40:29.653Z,11.83
2019-03-17T00:41:33.157Z,11.77
2019-03-17T00:42:36.627Z,11.72
2019-03-17T00:43:40.140Z,11.59
2019-03-17T00:44:43.544Z,11.44
2019-03-17T00:45:47.069Z,11.33
2019-03-17T00:46:50.506Z,11.25
2019-03-17T00:47:54.009Z,11.19
2019-03-17T00:48:57.508Z,11.08
2019-03-17T00:50:00.938Z,10.80
2019-03-17T00:51:04.509Z,10.71
2019-03-17T00:52:07.988Z,10.62
2019-03-17T00:53:11.428Z,10.48
2019-03-17T00:54:14.864Z,10.47
2019-03-17T00:55:18.293Z,10.47
2019-03-17T00:56:21.799Z,10.43
2019-03-17T00:57:25.272Z,10.35
2019-03-17T00:58:28.684Z,10.30
2019-03-17T00:59:32.115Z,10.29
2019-03-17T01:00:35.608Z,10.25
2019-03-17T01:01:39.131Z,10.20
2019-03-17T01:02:42.632Z,10.13
2019-03-17T01:03:46.061Z,10.08
2019-03-17T01:04:56.241Z,10.09
2019-03-17T01:05:54.736Z,10.05
2019-03-17T01:06:58.178Z,10.00
2019-03-17T01:08:01.682Z,10.00
2019-03-17T01:09:06.018Z,9.95
2019-03-17T01:10:10.076Z,9.97
2019-03-17T01:11:13.511Z,9.99
2019-03-17T01:12:17.014Z,9.96
2019-03-17T01:13:20.533Z,9.88
2019-03-17T01:14:23.964Z,9.88
2019-03-17T01:15:27.414Z,9.88
2019-03-17T01:16:30.910Z,9.92
2019-03-17T01:17:34.399Z,9.83
2019-03-17T01:18:37.877Z,9.75
2019-03-17T01:19:41.390Z,9.68
2019-03-17T01:20:44.786Z,9.62
2019-03-17T01:21:48.216Z,9.54
2019-03-17T01:22:51.660Z,9.49
2019-03-17T01:23:55.125Z,9.55
2019-03-17T01:24:58.701Z,9.48
2019-03-17T01:26:02.128Z,9.44
2019-03-17T01:27:05.700Z,9.35
2019-03-17T01:28:09.203Z,9.37
2019-03-17T01:29:12.714Z,9.33
2019-03-17T01:30:16.161Z,9.29
2019-03-17T01:31:19.605Z,9.27
2019-03-17T01:32:23.139Z,9.26
2019-03-17T01:33:26.547Z,9.26
2019-03-17T01:34:29.991Z,9.29
2019-03-17T01:35:33.433Z,9.30
2019-03-17T01:36:36.843Z,9.31
2019-03-17T01:37:40.291Z,9.30
2019-03-17T01:38:43.712Z,9.22
2019-03-17T01:39:47.164Z,9.11
2019-03-17T01:40:50.612Z,9.05
2019-03-17T01:41:54.090Z,9.05
2019-03-17T01:42:57.519Z,9.00
2019-03-17T01:44:00.945Z,8.88
2019-03-17T01:45:06.031Z,8.84
2019-03-17T01:46:09.583Z,8.77
2019-03-17T01:47:13.055Z,8.85
2019-03-17T01:48:16.553Z,8.88
2019-03-17T01:49:20.092Z,8.75
2019-03-17T01:50:23.514Z,8.79
2019-03-17T01:51:26.924Z,8.77
2019-03-17T01:52:30.349Z,8.68
2019-03-17T01:53:33.785Z,8.57
2019-03-17T01:54:37.216Z,8.61
2019-03-17T01:55:40.658Z,8.62
2019-03-17T01:56:44.081Z,8.74
2019-03-17T01:57:47.513Z,8.79
2019-03-17T01:58:50.946Z,8.79
2019-03-17T01:59:54.359Z,8.68
2019-03-17T02:00:57.899Z,8.58
2019-03-17T02:02:01.387Z,8.54
2019-03-17T02:03:04.888Z,8.55
2019-03-17T02:04:08.379Z,8.57
2019-03-17T02:05:21.247Z,8.61
2019-03-17T02:06:17.178Z,8.60
2019-03-17T02:07:20.708Z,8.53
2019-03-17T02:08:24.134Z,8.51
2019-03-17T02:09:27.564Z,8.43
2019-03-17T02:10:31.052Z,8.36
2019-03-17T02:11:34.500Z,8.34
2019-03-17T02:12:38.003Z,8.33
2019-03-17T02:13:41.432Z,8.32
2019-03-17T02:14:44.929Z,8.36
2019-03-17T02:15:48.377Z,8.39
2019-03-17T02:16:51.873Z,8.43
2019-03-17T02:17:55.275Z,8.42
2019-03-17T02:18:58.705Z,8.41
2019-03-17T02:20:02.195Z,8.40
2019-03-17T02:21:05.765Z,8.37
2019-03-17T02:22:09.272Z,8.38
2019-03-17T02:23:12.721Z,8.35
2019-03-17T02:24:16.151Z,8.33
2019-03-17T02:25:19.644Z,8.36
2019-03-17T02:26:23.066Z,8.33
2019-03-17T02:27:26.593Z,8.32
2019-03-17T02:28:30.014Z,8.37
2019-03-17T02:29:33.453Z,8.37
2019-03-17T02:30:36.959Z,8.40
2019-03-17T02:31:43.259Z,8.40
2019-03-17T02:32:46.698Z,8.40
2019-03-17T02:33:50.154Z,8.37
2019-03-17T02:34:53.579Z,8.38
2019-03-17T02:35:57.058Z,8.37
2019-03-17T02:37:00.488Z,8.33
2019-03-17T02:38:03.975Z,8.34
2019-03-17T02:39:07.454Z,8.28
2019-03-17T02:40:11.095Z,8.24
2019-03-17T02:41:14.638Z,8.24
2019-03-17T02:42:18.014Z,8.21
2019-03-17T02:43:21.475Z,8.24
2019-03-17T02:44:24.906Z,8.33
2019-03-17T02:45:28.333Z,8.34
2019-03-17T02:46:31.763Z,8.25
2019-03-17T02:47:35.199Z,8.15
2019-03-17T02:48:38.660Z,8.16
2019-03-17T02:49:42.146Z,8.16
2019-03-17T02:50:45.570Z,8.24
2019-03-17T02:51:49.080Z,8.24
2019-03-17T02:52:52.503Z,8.13
2019-03-17T02:53:55.973Z,8.05
2019-03-17T02:54:59.411Z,8.08
2019-03-17T02:56:02.902Z,8.12
2019-03-17T02:57:06.457Z,8.12
2019-03-17T02:58:09.976Z,8.09
2019-03-17T02:59:13.566Z,8.10
2019-03-17T03:00:18.640Z,8.10
2019-03-17T03:01:22.210Z,8.01
2019-03-17T03:02:25.702Z,7.97
2019-03-17T03:03:29.149Z,8.00
2019-03-17T03:04:32.596Z,7.96
2019-03-17T03:05:36.107Z,7.98
2019-03-17T03:06:39.607Z,7.98
2019-03-17T03:07:43.021Z,7.98
2019-03-17T03:08:46.535Z,7.98
2019-03-17T03:09:49.985Z,7.96
2019-03-17T03:10:53.537Z,8.02
2019-03-17T03:11:56.970Z,8.02
2019-03-17T03:13:00.534Z,8.01
2019-03-17T03:14:04.147Z,8.02
2019-03-17T03:15:09.219Z,8.08
2019-03-17T03:16:12.677Z,8.07
2019-03-17T03:17:16.091Z,8.07
2019-03-17T03:18:19.513Z,7.98
2019-03-17T03:19:22.938Z,7.91
2019-03-17T03:20:26.382Z,7.91
2019-03-17T03:21:29.881Z,7.98
2019-03-17T03:22:33.300Z,8.07
2019-03-17T03:23:36.738Z,8.10
2019-03-17T03:24:40.158Z,8.08
2019-03-17T03:25:43.666Z,8.09
2019-03-17T03:26:47.096Z,8.01
2019-03-17T03:27:50.590Z,7.94
2019-03-17T03:28:54.019Z,7.89
2019-03-17T03:29:57.438Z,7.86
2019-03-17T03:31:00.902Z,7.88
2019-03-17T03:32:04.406Z,7.79
2019-03-17T03:33:07.893Z,7.80
2019-03-17T03:34:11.326Z,7.60
2019-03-17T03:35:15.003Z,7.60
2019-03-17T03:36:18.450Z,7.58
2019-03-17T03:37:21.887Z,7.58
2019-03-17T03:38:25.314Z,7.66
2019-03-17T03:39:28.804Z,7.64
2019-03-17T03:40:32.392Z,7.64
2019-03-17T03:41:35.972Z,7.58
2019-03-17T03:42:39.423Z,7.60
2019-03-17T03:43:42.856Z,7.67
2019-03-17T03:44:46.278Z,7.65
2019-03-17T03:45:49.710Z,7.60
2019-03-17T03:46:53.152Z,7.63
2019-03-17T03:47:56.566Z,7.57
2019-03-17T03:49:00.131Z,7.55
2019-03-17T03:50:04.388Z,7.56
2019-03-17T03:51:07.901Z,7.51
2019-03-17T03:52:11.338Z,7.51
2019-03-17T03:53:14.765Z,7.51
2019-03-17T03:54:18.191Z,7.49
2019-03-17T03:55:21.622Z,7.54
2019-03-17T03:56:25.042Z,7.50
2019-03-17T03:57:28.474Z,7.51
2019-03-17T03:58:31.938Z,7.48
2019-03-17T03:59:35.350Z,7.44
2019-03-17T04:00:38.842Z,7.41
2019-03-17T04:01:42.354Z,7.41
2019-03-17T04:02:45.935Z,7.35
2019-03-17T04:03:49.501Z,7.31
2019-03-17T04:04:52.929Z,7.40
2019-03-17T04:05:56.419Z,7.37
2019-03-17T04:06:59.844Z,7.36
2019-03-17T04:08:03.287Z,7.36
2019-03-17T04:09:07.888Z,7.35
2019-03-17T04:10:12.094Z,7.34
2019-03-17T04:11:15.554Z,7.28
2019-03-17T04:12:18.973Z,7.27
2019-03-17T04:13:22.417Z,7.30
2019-03-17T04:14:25.949Z,7.31
2019-03-17T04:15:29.419Z,7.31
2019-03-17T04:16:32.850Z,7.28
2019-03-17T04:17:36.376Z,7.28
2019-03-17T04:18:39.877Z,7.30
2019-03-17T04:19:43.373Z,7.29
2019-03-17T04:20:46.876Z,7.28
2019-03-17T04:21:50.371Z,7.28
2019-03-17T04:22:53.810Z,7.25
2019-03-17T04:23:57.249Z,7.19
2019-03-17T04:25:00.870Z,7.09
2019-03-17T04:26:04.422Z,7.09
2019-03-17T04:27:07.853Z,7.14
2019-03-17T04:28:11.279Z,7.13
2019-03-17T04:29:14.725Z,7.13
2019-03-17T04:30:18.143Z,7.08
2019-03-17T04:31:21.570Z,7.14
2019-03-17T04:32:24.988Z,7.24
2019-03-17T04:33:28.419Z,7.16
2019-03-17T04:34:31.870Z,7.12
2019-03-17T04:35:35.372Z,7.17
2019-03-17T04:36:40.572Z,7.14
2019-03-17T04:37:44.184Z,7.13
2019-03-17T04:38:47.597Z,7.09
2019-03-17T04:39:51.041Z,7.10
2019-03-17T04:40:54.518Z,7.04
2019-03-17T04:41:57.940Z,7.01
2019-03-17T04:43:01.367Z,6.94
2019-03-17T04:44:04.862Z,6.90
2019-03-17T04:45:08.952Z,6.85
2019-03-17T04:46:12.469Z,6.88
2019-03-17T04:47:15.916Z,6.92
2019-03-17T04:48:19.342Z,6.96
2019-03-17T04:49:22.769Z,6.97
2019-03-17T04:50:26.289Z,6.96
2019-03-17T04:51:29.723Z,6.91
2019-03-17T04:52:33.245Z,6.91
2019-03-17T04:53:36.660Z,6.97
2019-03-17T04:54:40.110Z,6.91
2019-03-17T04:55:43.553Z,6.91
2019-03-17T04:56:47.003Z,6.92
2019-03-17T04:57:50.411Z,6.84
2019-03-17T04:58:53.831Z,6.87
2019-03-17T04:59:57.258Z,6.86
2019-03-17T05:01:00.762Z,6.84
2019-03-17T05:02:04.256Z,6.81
2019-03-17T05:03:07.677Z,6.81
2019-03-17T05:04:11.201Z,6.76
2019-03-17T05:05:14.688Z,6.77
2019-03-17T05:06:18.140Z,6.82
2019-03-17T05:07:21.555Z,6.88
2019-03-17T05:08:24.985Z,6.92
2019-03-17T05:09:28.473Z,6.98
2019-03-17T05:10:31.902Z,6.94
2019-03-17T05:11:35.344Z,7.00
2019-03-17T05:12:38.790Z,7.07
2019-03-17T05:13:42.289Z,7.02
2019-03-17T05:14:45.745Z,7.02
2019-03-17T05:15:49.130Z,7.04
2019-03-17T05:16:52.716Z,7.09
2019-03-17T05:17:56.356Z,7.08
2019-03-17T05:18:59.782Z,7.12
2019-03-17T05:20:04.342Z,7.13
2019-03-17T05:21:07.840Z,7.14
2019-03-17T05:22:11.360Z,7.09
2019-03-17T05:23:14.907Z,7.12
2019-03-17T05:24:18.343Z,7.07
2019-03-17T05:25:21.940Z,7.09
2019-03-17T05:26:25.376Z,7.13
2019-03-17T05:27:28.806Z,7.08
2019-03-17T05:28:32.298Z,7.07
2019-03-17T05:29:35.727Z,7.10
2019-03-17T05:30:39.225Z,7.06
2019-03-17T05:31:42.637Z,7.04
2019-03-17T05:32:46.203Z,7.09
2019-03-17T05:33:49.579Z,7.12
2019-03-17T05:34:53.005Z,7.18
2019-03-17T05:35:56.460Z,7.25
2019-03-17T05:37:06.306Z,7.26
2019-03-17T05:38:05.043Z,7.29
2019-03-17T05:39:08.485Z,7.28
2019-03-17T05:40:11.977Z,7.27
2019-03-17T05:41:15.402Z,7.28
2019-03-17T05:42:18.850Z,7.32
2019-03-17T05:43:22.280Z,7.33
2019-03-17T05:44:25.730Z,7.37
2019-03-17T05:45:29.161Z,7.38
2019-03-17T05:46:32.600Z,7.39
2019-03-17T05:47:36.105Z,7.44
2019-03-17T05:48:39.536Z,7.51
2019-03-17T05:49:42.986Z,7.53
2019-03-17T05:50:46.411Z,7.58
2019-03-17T05:51:49.898Z,7.63
2019-03-17T05:52:53.346Z,7.64
2019-03-17T05:53:56.763Z,7.65
2019-03-17T05:55:00.427Z,7.70
2019-03-17T05:56:03.929Z,7.72
2019-03-17T05:57:07.358Z,7.75
2019-03-17T05:58:10.791Z,7.74
2019-03-17T05:59:14.258Z,7.77
2019-03-17T06:00:18.713Z,7.85
2019-03-17T06:01:22.207Z,7.90
2019-03-17T06:02:25.697Z,7.94
2019-03-17T06:03:29.123Z,7.97
2019-03-17T06:04:32.578Z,8.03
2019-03-17T06:05:36.004Z,8.09
2019-03-17T06:06:39.428Z,8.09
2019-03-17T06:07:42.933Z,8.18
2019-03-17T06:08:46.371Z,8.21
2019-03-17T06:09:49.812Z,8.27
2019-03-17T06:10:53.256Z,8.32
2019-03-17T06:11:56.678Z,8.36
2019-03-17T06:13:00.115Z,8.40
2019-03-17T06:14:03.596Z,8.39
2019-03-17T06:15:10.315Z,8.44
2019-03-17T06:16:13.737Z,8.50
2019-03-17T06:17:17.156Z,8.52
2019-03-17T06:18:20.576Z,8.53
2019-03-17T06:19:24.016Z,8.55
2019-03-17T06:20:27.465Z,8.57
2019-03-17T06:21:30.894Z,8.62
2019-03-17T06:22:34.407Z,8.64
2019-03-17T06:23:37.820Z,8.69
2019-03-17T06:24:41.241Z,8.69
2019-03-17T06:25:44.756Z,8.72
2019-03-17T06:26:48.180Z,8.73
2019-03-17T06:27:51.671Z,8.76
2019-03-17T06:28:55.089Z,8.76
2019-03-17T06:29:58.511Z,8.77
2019-03-17T06:31:01.993Z,8.77
2019-03-17T06:32:05.415Z,8.77
2019-03-17T06:33:08.844Z,8.81
2019-03-17T06:34:12.340Z,8.84
2019-03-17T06:35:15.766Z,8.84
2019-03-17T06:36:19.393Z,8.91
2019-03-17T06:37:30.926Z,8.91
2019-03-17T06:38:28.155Z,8.91
2019-03-17T06:39:31.702Z,8.93
2019-03-17T06:40:35.124Z,8.97
2019-03-17T06:41:38.565Z,9.04
2019-03-17T06:42:42.036Z,9.09
2019-03-17T06:43:45.506Z,9.11
2019-03-17T06:44:48.994Z,9.14
2019-03-17T06:45:52.492Z,9.16
2019-03-17T06:46:55.968Z,9.20
2019-03-17T06:47:59.444Z,9.22
2019-03-17T06:49:02.963Z,9.26
2019-03-17T06:50:14.480Z,9.32
2019-03-17T06:51:17.923Z,9.36
2019-03-17T06:52:21.368Z,9.40
2019-03-17T06:53:24.812Z,9.44
2019-03-17T06:54:28.420Z,9.48
2019-03-17T06:55:31.852Z,9.58
2019-03-17T06:56:35.273Z,9.66
2019-03-17T06:57:38.809Z,9.73
2019-03-17T06:58:42.342Z,9.79
2019-03-17T06:59:45.797Z,9.83
2019-03-17T07:00:49.237Z,9.89
2019-03-17T07:01:52.655Z,9.99
2019-03-17T07:02:56.179Z,10.02
2019-03-17T07:03:59.672Z,10.05
2019-03-17T07:05:03.347Z,10.10
2019-03-17T07:06:06.836Z,10.11
2019-03-17T07:07:10.267Z,10.12
2019-03-17T07:08:13.729Z,10.16
2019-03-17T07:09:17.152Z,10.17
2019-03-17T07:10:20.721Z,10.14
2019-03-17T07:11:24.147Z,10.17
2019-03-17T07:12:27.587Z,10.20
2019-03-17T07:13:31.036Z,10.24
2019-03-17T07:14:34.562Z,10.25
2019-03-17T07:15:38.057Z,10.28
2019-03-17T07:16:41.503Z,10.32
2019-03-17T07:17:45.029Z,10.34
2019-03-17T07:18:48.491Z,10.37
2019-03-17T07:19:51.940Z,10.41
2019-03-17T07:20:55.366Z,10.43
2019-03-17T07:21:58.796Z,10.42
2019-03-17T07:23:02.321Z,10.45
2019-03-17T07:24:05.827Z,10.48
2019-03-17T07:25:09.917Z,10.50
2019-03-17T07:26:13.424Z,10.52
2019-03-17T07:27:16.854Z,10.57
2019-03-17T07:28:20.300Z,10.61
2019-03-17T07:29:23.745Z,10.61
2019-03-17T07:30:27.177Z,10.61
2019-03-17T07:31:30.750Z,10.60
2019-03-17T07:32:34.184Z,10.62
2019-03-17T07:33:37.643Z,10.63
2019-03-17T07:34:41.090Z,10.64
2019-03-17T07:35:46.397Z,10.68
2019-03-17T07:36:49.680Z,10.72
2019-03-17T07:37:56.941Z,10.76
2019-03-17T07:39:10.859Z,10.77
2019-03-17T07:40:04.880Z,10.77
2019-03-17T07:41:08.300Z,10.78
2019-03-17T07:42:11.747Z,10.79
2019-03-17T07:43:15.175Z,10.84
2019-03-17T07:44:18.597Z,10.82
2019-03-17T07:45:22.113Z,10.84
2019-03-17T07:46:25.553Z,10.87
2019-03-17T07:47:28.980Z,10.91
2019-03-17T07:48:32.422Z,10.96
2019-03-17T07:49:35.943Z,11.04
2019-03-17T07:50:39.361Z,11.13
2019-03-17T07:51:42.911Z,11.20
2019-03-17T07:52:46.337Z,11.32
2019-03-17T07:53:49.761Z,11.37
2019-03-17T07:54:53.295Z,11.38
2019-03-17T07:55:56.762Z,11.40
2019-03-17T07:57:00.244Z,11.42
2019-03-17T07:58:03.815Z,11.48
2019-03-17T07:59:07.247Z,11.49
2019-03-17T08:00:14.359Z,11.54
2019-03-17T08:01:17.804Z,11.60
2019-03-17T08:02:21.295Z,11.64
2019-03-17T08:03:24.740Z,11.75
2019-03-17T08:04:28.240Z,11.86
2019-03-17T08:05:31.686Z,11.89
2019-03-17T08:06:35.200Z,11.93
2019-03-17T08:07:38.669Z,12.02
2019-03-17T08:08:42.263Z,12.13
2019-03-17T08:09:45.812Z,12.20
2019-03-17T08:10:49.323Z,12.25
2019-03-17T08:11:52.777Z,12.30
2019-03-17T08:12:56.214Z,12.33
2019-03-17T08:13:59.636Z,12.34
2019-03-17T08:15:03.241Z,12.30
2019-03-17T08:16:06.752Z,12.37
2019-03-17T08:17:10.195Z,12.45
2019-03-17T08:18:13.619Z,12.51
2019-03-17T08:19:17.047Z,12.62
2019-03-17T08:20:20.542Z,12.59
2019-03-17T08:21:23.984Z,12.57
2019-03-17T08:22:27.430Z,12.55
2019-03-17T08:23:30.864Z,12.57
2019-03-17T08:24:34.292Z,12.65
2019-03-17T08:25:37.860Z,12.72
2019-03-17T08:26:41.390Z,12.77
2019-03-17T08:27:44.842Z,12.86
2019-03-17T08:28:48.259Z,12.83
2019-03-17T08:29:51.689Z,12.89
2019-03-17T08:30:55.123Z,12.95
2019-03-17T08:31:58.574Z,13.04
2019-03-17T08:33:02.046Z,13.10
2019-03-17T08:34:05.590Z,13.15
2019-03-17T08:35:09.869Z,13.16
2019-03-17T08:36:13.291Z,13.14
2019-03-17T08:37:16.744Z,13.14
2019-03-17T08:38:22.080Z,13.19
2019-03-17T08:39:25.414Z,13.21
2019-03-17T08:40:28.911Z,13.22
2019-03-17T08:41:32.424Z,13.30
2019-03-17T08:42:35.872Z,13.32
2019-03-17T08:43:39.299Z,13.36
2019-03-17T08:44:42.807Z,13.48
2019-03-17T08:45:46.249Z,13.49
2019-03-17T08:46:49.666Z,13.51
2019-03-17T08:47:58.209Z,13.57
2019-03-17T08:48:58.393Z,13.59
2019-03-17T08:50:01.838Z,13.63
2019-03-17T08:51:05.334Z,13.76
2019-03-17T08:52:08.835Z,13.80
2019-03-17T08:53:12.272Z,13.80
2019-03-17T08:54:15.767Z,13.84
2019-03-17T08:55:19.270Z,13.88
2019-03-17T08:56:22.702Z,13.89
2019-03-17T08:57:26.149Z,13.91
2019-03-17T08:58:29.673Z,13.97
2019-03-17T08:59:33.212Z,13.98
2019-03-17T09:00:36.723Z,14.07
2019-03-17T09:01:40.162Z,14.07
2019-03-17T09:02:43.585Z,14.10
2019-03-17T09:03:47.029Z,14.16
2019-03-17T09:04:50.485Z,14.17
2019-03-17T09:05:53.939Z,14.19
2019-03-17T09:06:57.361Z,14.19
2019-03-17T09:08:00.829Z,14.25
2019-03-17T09:09:06.069Z,14.37
2019-03-17T09:10:14.323Z,14.44
2019-03-17T09:11:17.754Z,14.50
2019-03-17T09:12:21.188Z,14.47
2019-03-17T09:13:24.627Z,14.51
2019-03-17T09:14:28.077Z,14.49
2019-03-17T09:15:31.511Z,14.53
2019-03-17T09:16:35.016Z,14.58
2019-03-17T09:17:38.452Z,14.58
2019-03-17T09:18:41.877Z,14.62
2019-03-17T09:19:45.394Z,14.68
2019-03-17T09:20:48.820Z,14.72
2019-03-17T09:21:52.253Z,14.74
2019-03-17T09:22:55.693Z,14.74
2019-03-17T09:23:59.135Z,14.72
2019-03-17T09:25:02.604Z,14.73
2019-03-17T09:26:06.056Z,14.75
2019-03-17T09:27:09.567Z,14.81
2019-03-17T09:28:12.972Z,14.88
2019-03-17T09:29:16.480Z,14.88
2019-03-17T09:30:20.008Z,14.90
2019-03-17T09:31:23.444Z,14.90
2019-03-17T09:32:27.150Z,14.91
2019-03-17T09:33:30.623Z,14.93
2019-03-17T09:34:34.059Z,15.03
2019-03-17T09:35:37.636Z,15.08
2019-03-17T09:36:41.075Z,15.11
2019-03-17T09:37:44.508Z,15.12
2019-03-17T09:38:47.945Z,15.16
2019-03-17T09:39:51.375Z,15.22
2019-03-17T09:40:54.941Z,15.26
2019-03-17T09:41:58.438Z,15.29
2019-03-17T09:43:01.887Z,15.35
2019-03-17T09:44:05.375Z,15.36
2019-03-17T09:45:13.098Z,15.38
2019-03-17T09:46:16.611Z,15.42
2019-03-17T09:47:20.060Z,15.41
2019-03-17T09:48:23.737Z,15.39
2019-03-17T09:49:27.214Z,15.44
2019-03-17T09:50:30.652Z,15.48
2019-03-17T09:51:34.099Z,15.55
2019-03-17T09:52:37.540Z,15.58
2019-03-17T09:53:40.959Z,15.57
2019-03-17T09:54:44.393Z,15.57
2019-03-17T09:55:47.823Z,15.56
2019-03-17T09:56:51.290Z,15.56
2019-03-17T09:57:54.728Z,15.60
2019-03-17T09:58:58.156Z,15.61
2019-03-17T10:00:01.587Z,15.66
2019-03-17T10:01:05.022Z,15.73
2019-03-17T10:02:08.465Z,15.79
2019-03-17T10:03:11.900Z,15.77
2019-03-17T10:04:15.330Z,15.82
2019-03-17T10:05:18.841Z,15.82
2019-03-17T10:06:22.270Z,15.83
2019-03-17T10:07:25.809Z,15.89
2019-03-17T10:08:29.256Z,15.87
2019-03-17T10:09:32.677Z,15.88
2019-03-17T10:10:36.100Z,15.93
2019-03-17T10:11:40.797Z,15.90
2019-03-17T10:12:44.164Z,15.98
2019-03-17T10:13:47.594Z,16.03
2019-03-17T10:14:51.091Z,16.01
2019-03-17T10:15:54.557Z,16.03
2019-03-17T10:16:57.995Z,16.13
2019-03-17T10:18:01.436Z,16.10
2019-03-17T10:19:04.859Z,16.09
2019-03-17T10:20:15.943Z,16.19
2019-03-17T10:21:19.456Z,16.20
2019-03-17T10:22:22.898Z,16.27
2019-03-17T10:23:26.355Z,16.29
2019-03-17T10:24:29.784Z,16.28
2019-03-17T10:25:33.224Z,16.27
2019-03-17T10:26:36.646Z,16.28
2019-03-17T10:27:40.213Z,16.31
2019-03-17T10:28:43.735Z,16.32
2019-03-17T10:29:47.153Z,16.31
2019-03-17T10:30:50.646Z,16.27
2019-03-17T10:31:54.152Z,16.27
2019-03-17T10:32:57.586Z,16.32
2019-03-17T10:34:01.045Z,16.31
2019-03-17T10:35:05.326Z,16.32
2019-03-17T10:36:08.901Z,16.47
2019-03-17T10:37:12.322Z,16.60
2019-03-17T10:38:15.749Z,16.61
2019-03-17T10:39:19.259Z,16.58
2019-03-17T10:40:22.929Z,16.65
2019-03-17T10:41:26.415Z,16.64
2019-03-17T10:42:29.845Z,16.64
2019-03-17T10:43:33.270Z,16.59
2019-03-17T10:44:36.730Z,16.55
2019-03-17T10:45:40.162Z,16.52
2019-03-17T10:46:43.625Z,16.56
2019-03-17T10:47:47.065Z,16.71
2019-03-17T10:48:50.550Z,16.81
2019-03-17T10:49:54.062Z,16.84
2019-03-17T10:50:57.483Z,16.80
2019-03-17T10:52:00.909Z,16.87
2019-03-17T10:53:04.469Z,17.03
2019-03-17T10:54:07.899Z,17.17
2019-03-17T10:55:11.884Z,17.19
2019-03-17T10:56:15.405Z,17.14
2019-03-17T10:57:18.838Z,17.03
2019-03-17T10:58:22.281Z,17.04
2019-03-17T10:59:27.742Z,17.04
2019-03-17T11:00:30.883Z,17.14
2019-03-17T11:01:34.402Z,17.25
2019-03-17T11:02:37.849Z,17.35
2019-03-17T11:03:41.262Z,17.29
2019-03-17T11:04:44.683Z,17.29
2019-03-17T11:05:48.135Z,17.46
2019-03-17T11:06:51.583Z,17.35
2019-03-17T11:07:55.076Z,17.22
2019-03-17T11:08:58.505Z,17.25
2019-03-17T11:10:01.932Z,17.20
2019-03-17T11:11:05.535Z,17.09
2019-03-17T11:12:08.988Z,17.23
2019-03-17T11:13:12.490Z,17.23
2019-03-17T11:14:15.924Z,17.15
2019-03-17T11:15:20.396Z,17.17
2019-03-17T11:16:23.952Z,17.13
2019-03-17T11:17:27.393Z,17.21
2019-03-17T11:18:30.853Z,17.29
2019-03-17T11:19:34.277Z,17.33
2019-03-17T11:20:37.702Z,17.31
2019-03-17T11:21:41.251Z,17.30
2019-03-17T11:22:44.825Z,17.50
2019-03-17T11:23:48.270Z,17.69
2019-03-17T11:24:51.766Z,17.72
2019-03-17T11:25:55.195Z,17.55
2019-03-17T11:26:58.643Z,17.52
2019-03-17T11:28:02.087Z,17.54
2019-03-17T11:29:05.516Z,17.53
2019-03-17T11:30:12.000Z,17.52
2019-03-17T11:31:15.413Z,17.65
2019-03-17T11:32:18.860Z,17.77
2019-03-17T11:33:22.287Z,17.87
2019-03-17T11:34:25.742Z,17.89
2019-03-17T11:35:29.200Z,18.01
2019-03-17T11:36:32.628Z,17.82
2019-03-17T11:37:36.073Z,17.96
2019-03-17T11:38:39.506Z,18.02
2019-03-17T11:39:43.002Z,18.08
2019-03-17T11:40:46.431Z,18.03
2019-03-17T11:41:49.931Z,18.07
2019-03-17T11:42:53.395Z,18.14
2019-03-17T11:43:56.863Z,18.23
2019-03-17T11:45:00.461Z,18.38
2019-03-17T11:46:04.055Z,18.51
2019-03-17T11:47:07.498Z,18.59
2019-03-17T11:48:10.939Z,18.80
2019-03-17T11:49:14.475Z,18.99
2019-03-17T11:50:19.031Z,19.14
2019-03-17T11:51:22.462Z,19.25
2019-03-17T11:52:25.918Z,19.33
2019-03-17T11:53:29.506Z,19.40
2019-03-17T11:54:32.961Z,19.40
2019-03-17T11:55:36.455Z,19.44
2019-03-17T11:56:39.949Z,19.64
2019-03-17T11:57:43.516Z,19.70
2019-03-17T11:58:46.959Z,19.74
2019-03-17T11:59:50.521Z,19.73
2019-03-17T12:00:54.004Z,19.78
2019-03-17T12:01:57.514Z,19.99
2019-03-17T12:03:00.953Z,20.01
2019-03-17T12:04:04.547Z,20.21
2019-03-17T12:05:08.959Z,20.35
2019-03-17T12:06:12.385Z,20.48
2019-03-17T12:07:15.820Z,20.46
2019-03-17T12:08:19.257Z,20.48
2019-03-17T12:09:28.965Z,20.54
2019-03-17T12:10:27.922Z,20.53
2019-03-17T12:11:31.364Z,20.49
2019-03-17T12:12:34.809Z,20.64
2019-03-17T12:13:38.318Z,20.74
2019-03-17T12:14:41.841Z,20.71
2019-03-17T12:15:45.277Z,20.94
2019-03-17T12:16:48.783Z,21.00
2019-03-17T12:17:52.289Z,21.07
2019-03-17T12:18:55.733Z,21.20
2019-03-17T12:19:59.211Z,21.40
2019-03-17T12:21:02.737Z,21.62
2019-03-17T12:22:09.445Z,21.97
2019-03-17T12:23:11.392Z,22.64
2019-03-17T12:24:14.965Z,23.53
2019-03-17T12:25:19.059Z,24.19
2019-03-17T12:26:22.656Z,24.81
2019-03-17T12:27:26.162Z,25.44
2019-03-17T12:28:29.719Z,24.83
2019-03-17T12:29:33.096Z,24.31
2019-03-17T12:30:36.614Z,24.53
2019-03-17T12:31:40.192Z,24.97
2019-03-17T12:32:43.714Z,25.15
2019-03-17T12:33:47.152Z,25.58
2019-03-17T12:34:50.609Z,25.37
2019-03-17T12:35:54.062Z,24.84
2019-03-17T12:36:57.870Z,24.58
2019-03-17T12:38:01.298Z,23.78
2019-03-17T12:39:06.598Z,23.20
2019-03-17T12:40:10.271Z,22.61
2019-03-17T12:41:13.864Z,22.33
2019-03-17T12:42:17.324Z,22.72
2019-03-17T12:43:20.766Z,22.77
2019-03-17T12:44:24.194Z,22.83
2019-03-17T12:45:27.697Z,23.52
2019-03-17T12:46:31.221Z,24.64
2019-03-17T12:47:37.189Z,24.90
2019-03-17T12:48:39.874Z,25.01
2019-03-17T12:49:43.313Z,25.79
2019-03-17T12:50:46.746Z,27.05
2019-03-17T12:51:50.196Z,25.88
2019-03-17T12:52:53.639Z,25.41
2019-03-17T12:53:57.087Z,25.76
2019-03-17T12:55:00.601Z,26.19
2019-03-17T12:56:04.166Z,26.50
2019-03-17T12:57:07.608Z,26.33
2019-03-17T12:58:11.127Z,26.95
2019-03-17T12:59:14.556Z,26.90
2019-03-17T13:00:25.346Z,27.34
2019-03-17T13:01:28.786Z,28.34
2019-03-17T13:02:32.302Z,28.10
2019-03-17T13:03:35.738Z,28.10
2019-03-17T13:04:39.232Z,28.43
2019-03-17T13:05:42.662Z,28.43
2019-03-17T13:06:46.090Z,27.48
2019-03-17T13:07:49.713Z,27.14
2019-03-17T13:08:53.161Z,27.42
2019-03-17T13:09:56.618Z,27.02
2019-03-17T13:11:00.038Z,28.34
2019-03-17T13:12:03.545Z,28.34
2019-03-17T13:13:07.037Z,27.88
2019-03-17T13:14:10.484Z,27.94
2019-03-17T13:15:14.050Z,27.94
2019-03-17T13:16:17.495Z,27.99
2019-03-17T13:17:20.906Z,28.88
2019-03-17T13:18:24.445Z,28.88
2019-03-17T13:19:27.888Z,28.87
2019-03-17T13:20:31.388Z,29.06
2019-03-17T13:21:34.816Z,28.88
2019-03-17T13:22:38.414Z,27.46
2019-03-17T13:23:41.949Z,26.70
2019-03-17T13:24:45.386Z,26.70
2019-03-17T13:25:48.817Z,26.65
2019-03-17T13:26:52.252Z,26.65
2019-03-17T13:27:55.724Z,26.44
2019-03-17T13:28:59.133Z,26.44
2019-03-17T13:30:02.636Z,26.88
2019-03-17T13:31:06.132Z,26.88
2019-03-17T13:32:09.596Z,25.56
2019-03-17T13:33:13.062Z,25.73
2019-03-17T13:34:16.509Z,26.13
2019-03-17T13:35:19.933Z,26.13
2019-03-17T13:36:23.357Z,25.94
2019-03-17T13:37:26.781Z,26.47
2019-03-17T13:38:30.253Z,27.15
2019-03-17T13:39:33.651Z,27.15
2019-03-17T13:40:37.091Z,27.03
2019-03-17T13:41:40.583Z,27.08
2019-03-17T13:42:44.088Z,27.06
2019-03-17T13:43:47.592Z,26.33
2019-03-17T13:44:51.047Z,26.23
2019-03-17T13:45:54.496Z,26.71
2019-03-17T13:46:57.948Z,27.54
2019-03-17T13:48:01.377Z,27.54
2019-03-17T13:49:04.948Z,27.68
2019-03-17T13:50:14.394Z,27.52